Airfield :
LOGIN :

Register | Disclaimer

   EN    FR    IT 

 










Legend :    VFR   Marginal VFR   IFR   Intensive IFR   Very Intensive IFR
Visi :
Ceiling :
>= 8 km
>= 3000ft
5 to 8 km
1000 to 3000 ft
1500m to 5 km
500 to 1000 ft
800 to 1500m
200 to 500 ft
< 800m
< 200 ft
Symbols :   Thunderstorms  Fog  Heavy snow  Heavy precipitations  Wind > 20 kt
SIGMETs :     Misc.  Thunderstorms  Icing  Turbulence  Mountain Waves  Volcanic Ashes






- Airport Elevation : 171 ft
- IATA code : EGC


LFBE - Bergerac

CURRENT METAR :
  • 191600Z AUTO 25006KT 9999 FEW045 13/07 Q1029 NOSIG

EXPIRED METARs :
  • 191530Z AUTO 24008KT 9999 FEW028 OVC068 13/07 Q1030 NOSIG
  • 191500Z AUTO 28007KT 9999 BKN046 BKN052 BKN072 13/06 Q1030 NOSIG
  • 191430Z AUTO 26007KT 9999 FEW045 OVC056 13/06 Q1030 NOSIG
  • 191400Z AUTO 27007KT CAVOK 13/06 Q1030 TEMPO 4000 -SHRA BKN014 BKN030TCU
  • 191330Z AUTO 26008KT 230V290 9999 SCT031 SCT042 BKN050 13/06 Q1031 TEMPO 4000 -SHRA BKN014 BKN030TCU

TAF TAF LFBE
Valid from the 19 at 12:00 until the 20 at 12:00 UTC


191100Z 1912/2012 26010KT 9999 BKN040
PROB30
TEMPO 1912/1915 4000 -SHRA BKN014 BKN030TCU
BECMG 1923/2001 VRB02KT 3000 BR BKN003
TEMPO 2001/2010 0500 FG VV///



MET'MAP, your aeronautical weather chart ! - Copyright ORBIFLY December 2007 - Disclaimer

ORBIFLY MET'MAP TEAM :

Programming & Development : Alexandra Zaïnal
Concept & original design : Baudouin d'Aumeries
Assistance for programming : Marc-Olivier Méhu
Technical & hardware support : Manuel Goepfert

Contact : metmap@orbifly.com




SOURCES & CREDITS :

   NOAA